createdAt,value
2023-05-09T00:02:30.356Z,54.39
2023-05-09T00:05:33.640Z,54.37
2023-05-09T00:08:36.770Z,54.48
2023-05-09T00:11:39.814Z,54.48
2023-05-09T00:14:45.451Z,54.50
2023-05-09T00:17:48.673Z,54.57
2023-05-09T00:20:51.696Z,54.56
2023-05-09T00:23:54.757Z,54.66
2023-05-09T00:26:57.784Z,54.75
2023-05-09T00:30:00.938Z,54.75
2023-05-09T00:33:04.225Z,54.85
2023-05-09T00:36:07.941Z,54.79
2023-05-09T00:39:10.982Z,54.81
2023-05-09T00:42:14.697Z,54.86
2023-05-09T00:45:17.965Z,54.96
2023-05-09T00:48:21.389Z,55.11
2023-05-09T00:51:25.830Z,55.24
2023-05-09T00:54:28.920Z,55.21
2023-05-09T00:57:31.903Z,55.22
2023-05-09T01:00:34.951Z,55.13
2023-05-09T01:03:41.263Z,55.12
2023-05-09T01:07:38.217Z,55.26
2023-05-09T01:10:51.007Z,55.07
2023-05-09T01:14:01.354Z,55.06
2023-05-09T01:17:24.792Z,54.94
2023-05-09T01:20:35.788Z,54.99
2023-05-09T01:23:44.793Z,55.04
2023-05-09T01:27:19.082Z,55.02
2023-05-09T01:30:24.851Z,55.18
2023-05-09T01:33:29.998Z,55.27
2023-05-09T01:36:36.388Z,55.30
2023-05-09T01:39:42.181Z,55.40
2023-05-09T01:42:53.218Z,55.37
2023-05-09T01:45:57.693Z,55.42
2023-05-09T01:49:03.046Z,55.44
2023-05-09T01:52:08.963Z,55.52
2023-05-09T01:55:13.289Z,55.54
2023-05-09T01:58:18.309Z,55.59
2023-05-09T02:01:22.921Z,55.59
2023-05-09T02:04:27.729Z,55.60
2023-05-09T02:07:32.259Z,55.71
2023-05-09T02:10:35.824Z,55.62
2023-05-09T02:13:41.133Z,55.65
2023-05-09T02:16:44.561Z,55.62
2023-05-09T02:19:47.600Z,55.45
2023-05-09T02:22:51.048Z,55.46
2023-05-09T02:25:55.052Z,55.44
2023-05-09T02:28:59.215Z,55.47
2023-05-09T02:32:04.377Z,55.41
2023-05-09T02:35:09.761Z,55.51
2023-05-09T02:38:13.684Z,55.63
2023-05-09T02:41:17.334Z,55.63
2023-05-09T02:44:20.440Z,55.74
2023-05-09T02:47:24.407Z,55.73
2023-05-09T02:50:27.687Z,55.75
2023-05-09T02:53:31.207Z,55.80
2023-05-09T02:56:34.179Z,55.78
2023-05-09T02:59:37.171Z,55.84
2023-05-09T03:02:40.368Z,55.93
2023-05-09T03:05:46.955Z,56.02
2023-05-09T03:08:50.229Z,56.14
2023-05-09T03:11:55.206Z,56.20
2023-05-09T03:14:58.202Z,56.20
2023-05-09T03:18:01.434Z,56.24
2023-05-09T03:21:05.649Z,56.22
2023-05-09T03:24:10.630Z,56.28
2023-05-09T03:27:13.678Z,56.38
2023-05-09T03:30:16.709Z,56.34
2023-05-09T03:33:21.182Z,56.39
2023-05-09T03:36:24.879Z,56.45
2023-05-09T03:39:28.119Z,56.49
2023-05-09T03:42:32.672Z,56.43
2023-05-09T03:45:38.346Z,56.47
2023-05-09T03:48:42.833Z,56.47
2023-05-09T03:51:46.131Z,56.56
2023-05-09T03:54:51.068Z,56.53
2023-05-09T03:57:54.992Z,56.59
2023-05-09T04:00:58.296Z,56.58
2023-05-09T04:04:01.703Z,56.69
2023-05-09T04:07:06.135Z,56.65
2023-05-09T04:10:09.712Z,56.78
2023-05-09T04:13:13.125Z,56.82
2023-05-09T04:16:16.318Z,56.92
2023-05-09T04:19:20.231Z,56.99
2023-05-09T04:22:23.275Z,57.16
2023-05-09T04:25:26.959Z,57.14
2023-05-09T04:28:30.360Z,57.24
2023-05-09T04:31:33.820Z,57.35
2023-05-09T04:34:37.388Z,57.37
2023-05-09T04:37:45.731Z,57.50
2023-05-09T04:40:49.067Z,57.48
2023-05-09T04:43:52.476Z,57.55
2023-05-09T04:46:58.085Z,57.61
2023-05-09T04:50:01.300Z,57.69
2023-05-09T04:53:04.337Z,57.81
2023-05-09T04:56:07.507Z,57.84
2023-05-09T04:59:11.362Z,57.88
2023-05-09T05:02:14.361Z,57.90
2023-05-09T05:05:24.598Z,57.98
2023-05-09T05:08:29.317Z,58.05
2023-05-09T05:11:32.352Z,58.06
2023-05-09T05:14:35.500Z,58.13
2023-05-09T05:17:38.971Z,58.25
2023-05-09T05:20:42.916Z,58.20
2023-05-09T05:23:46.038Z,58.20
2023-05-09T05:26:49.585Z,58.17
2023-05-09T05:29:52.645Z,58.15
2023-05-09T05:32:55.906Z,58.11
2023-05-09T05:35:59.483Z,58.10
2023-05-09T05:39:02.477Z,58.08
2023-05-09T05:42:05.592Z,58.10
2023-05-09T05:45:09.250Z,58.10
2023-05-09T05:48:14.654Z,57.96
2023-05-09T05:51:17.923Z,57.83
2023-05-09T05:54:21.706Z,57.65
2023-05-09T05:57:24.942Z,57.38
2023-05-09T06:00:28.628Z,57.28
2023-05-09T06:03:36.213Z,57.28
2023-05-09T06:06:42.194Z,56.94
2023-05-09T06:09:45.219Z,56.76
2023-05-09T06:12:48.289Z,56.70
2023-05-09T06:15:51.458Z,56.40
2023-05-09T06:18:55.899Z,56.23
2023-05-09T06:21:59.200Z,56.13
2023-05-09T06:25:02.721Z,56.16
2023-05-09T06:28:06.032Z,55.82
2023-05-09T06:31:09.028Z,55.54
2023-05-09T06:34:12.239Z,55.37
2023-05-09T06:37:15.268Z,55.23
2023-05-09T06:40:18.398Z,55.11
2023-05-09T06:43:21.501Z,55.10
2023-05-09T06:46:24.709Z,54.92
2023-05-09T06:49:27.682Z,54.70
2023-05-09T06:52:30.732Z,54.99
2023-05-09T06:55:33.775Z,54.54
2023-05-09T06:58:38.000Z,54.46
2023-05-09T07:01:41.282Z,54.12
2023-05-09T07:04:44.465Z,53.88
2023-05-09T07:07:47.607Z,53.60
2023-05-09T07:10:50.970Z,53.44
2023-05-09T07:13:54.071Z,52.98
2023-05-09T07:17:09.880Z,52.59
2023-05-09T07:20:17.275Z,52.45
2023-05-09T07:23:20.532Z,52.07
2023-05-09T07:26:24.940Z,51.65
2023-05-09T07:29:30.788Z,51.48
2023-05-09T07:32:33.854Z,51.37
2023-05-09T07:35:36.897Z,50.86
2023-05-09T07:38:40.678Z,50.15
2023-05-09T07:41:44.230Z,50.22
2023-05-09T07:44:47.279Z,50.13
2023-05-09T07:47:50.377Z,49.88
2023-05-09T07:50:59.133Z,49.29
2023-05-09T07:54:04.708Z,49.08
2023-05-09T07:57:08.104Z,48.62
2023-05-09T08:00:11.958Z,48.30
2023-05-09T08:03:19.849Z,48.05
2023-05-09T08:06:23.591Z,47.70
2023-05-09T08:09:26.710Z,47.48
2023-05-09T08:12:29.793Z,47.22
2023-05-09T08:15:32.993Z,46.86
2023-05-09T08:18:36.101Z,46.94
2023-05-09T08:21:39.347Z,46.71
2023-05-09T08:24:42.760Z,46.24
2023-05-09T08:27:45.800Z,46.34
2023-05-09T08:30:49.056Z,46.00
2023-05-09T08:33:52.607Z,45.94
2023-05-09T08:36:55.778Z,45.49
2023-05-09T08:39:58.873Z,45.29
2023-05-09T08:43:03.714Z,44.85
2023-05-09T08:46:09.394Z,44.75
2023-05-09T08:49:12.690Z,44.63
2023-05-09T08:52:16.336Z,44.36
2023-05-09T08:55:19.709Z,44.18
2023-05-09T08:58:23.129Z,43.93
2023-05-09T09:01:27.614Z,43.82
2023-05-09T09:04:30.850Z,43.58
2023-05-09T09:07:38.670Z,43.48
2023-05-09T09:10:47.615Z,43.38
2023-05-09T09:13:54.445Z,43.51
2023-05-09T09:16:58.717Z,43.34
2023-05-09T09:20:05.694Z,43.64
2023-05-09T09:23:12.607Z,43.77
2023-05-09T09:26:16.483Z,43.14
2023-05-09T09:29:23.737Z,43.24
2023-05-09T09:32:34.182Z,42.89
2023-05-09T09:35:43.475Z,42.60
2023-05-09T09:38:46.941Z,42.48
2023-05-09T09:41:50.820Z,42.28
2023-05-09T09:45:02.567Z,42.16
2023-05-09T09:48:07.726Z,41.92
2023-05-09T09:51:11.773Z,41.90
2023-05-09T09:54:15.153Z,41.78
2023-05-09T09:57:35.650Z,41.48
2023-05-09T10:00:38.909Z,41.27
2023-05-09T10:03:45.145Z,41.18
2023-05-09T10:06:59.236Z,41.14
2023-05-09T10:10:06.136Z,41.01
2023-05-09T10:13:12.188Z,40.80
2023-05-09T10:16:15.858Z,40.63
2023-05-09T10:19:21.147Z,40.56
2023-05-09T10:22:24.992Z,40.63
2023-05-09T10:25:44.709Z,40.69
2023-05-09T10:28:49.854Z,40.24
2023-05-09T10:31:59.187Z,39.88
2023-05-09T10:35:06.955Z,40.30
2023-05-09T10:38:12.609Z,40.26
2023-05-09T10:41:17.167Z,39.72
2023-05-09T10:44:23.340Z,39.43
2023-05-09T10:47:29.050Z,39.24
2023-05-09T10:50:32.164Z,39.21
2023-05-09T10:53:48.804Z,39.15
2023-05-09T10:56:51.804Z,39.00
2023-05-09T10:59:56.683Z,39.07
2023-05-09T11:03:07.905Z,39.10
2023-05-09T11:06:43.998Z,39.55
2023-05-09T11:09:52.255Z,39.20
2023-05-09T11:13:00.464Z,38.90
2023-05-09T11:16:05.392Z,38.80
2023-05-09T11:19:08.598Z,38.60
2023-05-09T11:22:21.625Z,38.54
2023-05-09T11:25:29.317Z,38.47
2023-05-09T11:28:37.658Z,38.87
2023-05-09T11:32:07.834Z,39.21
2023-05-09T11:35:19.621Z,38.89
2023-05-09T11:38:23.146Z,38.59
2023-05-09T11:41:27.311Z,38.55
2023-05-09T11:44:33.476Z,38.35
2023-05-09T11:47:37.929Z,38.22
2023-05-09T11:50:41.725Z,38.13
2023-05-09T11:53:47.119Z,38.11
2023-05-09T11:56:50.399Z,37.97
2023-05-09T11:59:56.705Z,37.88
2023-05-09T12:03:00.294Z,37.71
2023-05-09T12:06:07.013Z,37.86
2023-05-09T12:09:10.624Z,37.91
2023-05-09T12:12:14.434Z,37.92
2023-05-09T12:16:01.067Z,37.59
2023-05-09T12:19:04.624Z,37.29
2023-05-09T12:22:06.670Z,36.87
2023-05-09T12:25:09.829Z,36.85
2023-05-09T12:28:15.501Z,37.23
2023-05-09T12:31:18.301Z,37.24
2023-05-09T12:34:20.682Z,37.35
2023-05-09T12:37:22.891Z,36.72
2023-05-09T12:40:24.901Z,36.55
2023-05-09T12:43:29.682Z,36.79
2023-05-09T12:46:31.790Z,36.33
2023-05-09T12:49:36.256Z,36.29
2023-05-09T12:52:54.098Z,36.73
2023-05-09T12:56:05.012Z,36.28
2023-05-09T12:59:10.483Z,36.08
2023-05-09T13:02:13.037Z,36.19
2023-05-09T13:05:19.864Z,36.04
2023-05-09T13:08:21.633Z,36.01
2023-05-09T13:11:24.024Z,35.82
2023-05-09T13:14:26.408Z,35.93
2023-05-09T13:17:30.245Z,35.97
2023-05-09T13:20:32.056Z,36.00
2023-05-09T13:23:33.889Z,35.93
2023-05-09T13:26:35.603Z,36.26
2023-05-09T13:29:37.421Z,36.04
2023-05-09T13:32:39.340Z,36.37
2023-05-09T13:35:41.102Z,36.52
2023-05-09T13:38:44.943Z,36.57
2023-05-09T13:41:48.035Z,36.60
2023-05-09T13:44:49.966Z,36.80
2023-05-09T13:47:51.867Z,36.49
2023-05-09T13:50:53.711Z,36.13
2023-05-09T13:53:55.560Z,35.84
2023-05-09T13:56:57.282Z,35.91
2023-05-09T13:59:59.072Z,36.08
2023-05-09T14:03:03.692Z,36.30
2023-05-09T14:06:05.961Z,36.38
2023-05-09T14:09:08.513Z,36.49
2023-05-09T14:12:10.343Z,36.11
2023-05-09T14:15:12.836Z,35.97
2023-05-09T14:18:18.446Z,35.62
2023-05-09T14:21:22.001Z,35.73
2023-05-09T14:24:23.869Z,35.69
2023-05-09T14:27:25.607Z,35.81
2023-05-09T14:30:27.615Z,35.69
2023-05-09T14:33:29.423Z,35.36
2023-05-09T14:36:31.926Z,35.33
2023-05-09T14:39:33.731Z,35.49
2023-05-09T14:42:36.284Z,35.50
2023-05-09T14:45:38.806Z,35.59
2023-05-09T14:48:40.726Z,35.72
2023-05-09T14:51:42.481Z,35.75
2023-05-09T14:54:44.161Z,35.73
2023-05-09T14:57:46.195Z,35.75
2023-05-09T15:00:48.822Z,35.92
2023-05-09T15:03:50.566Z,36.14
2023-05-09T15:06:52.627Z,36.20
2023-05-09T15:09:54.458Z,36.16
2023-05-09T15:12:56.193Z,35.94
2023-05-09T15:15:57.968Z,36.04
2023-05-09T15:18:59.897Z,36.22
2023-05-09T15:22:03.425Z,36.25
2023-05-09T15:25:06.273Z,36.53
2023-05-09T15:28:08.152Z,36.42
2023-05-09T15:31:09.888Z,36.55
2023-05-09T15:34:11.644Z,36.73
2023-05-09T15:37:13.403Z,37.04
2023-05-09T15:40:15.571Z,36.90
2023-05-09T15:43:17.920Z,36.68
2023-05-09T15:46:20.072Z,36.62
2023-05-09T15:49:21.866Z,36.91
2023-05-09T15:52:24.490Z,36.89
2023-05-09T15:55:28.524Z,36.88
2023-05-09T15:58:30.893Z,36.90
2023-05-09T16:01:34.633Z,36.95
2023-05-09T16:04:37.954Z,36.98
2023-05-09T16:07:43.870Z,36.81
2023-05-09T16:10:48.407Z,36.84
2023-05-09T16:13:50.268Z,36.84
2023-05-09T16:16:53.242Z,36.72
2023-05-09T16:19:55.061Z,36.75
2023-05-09T16:22:56.859Z,36.78
2023-05-09T16:26:01.970Z,36.79
2023-05-09T16:29:05.960Z,36.72
2023-05-09T16:32:08.740Z,36.63
2023-05-09T16:35:10.706Z,36.82
2023-05-09T16:38:15.458Z,37.03
2023-05-09T16:41:18.542Z,36.87
2023-05-09T16:44:24.431Z,37.02
2023-05-09T16:47:26.347Z,37.15
2023-05-09T16:50:28.330Z,37.15
2023-05-09T16:53:30.122Z,36.97
2023-05-09T16:56:31.907Z,36.94
2023-05-09T16:59:33.642Z,36.80
2023-05-09T17:02:36.551Z,36.83
2023-05-09T17:05:38.344Z,36.95
2023-05-09T17:08:40.151Z,37.01
2023-05-09T17:11:41.868Z,37.08
2023-05-09T17:14:44.815Z,37.26
2023-05-09T17:17:46.849Z,37.15
2023-05-09T17:20:49.030Z,37.44
2023-05-09T17:23:53.261Z,37.32
2023-05-09T17:26:56.036Z,37.34
2023-05-09T17:29:57.991Z,37.50
2023-05-09T17:33:00.228Z,37.48
2023-05-09T17:36:06.466Z,37.63
2023-05-09T17:39:08.476Z,37.58
2023-05-09T17:42:12.167Z,37.49
2023-05-09T17:45:14.335Z,37.65
2023-05-09T17:48:16.164Z,37.99
2023-05-09T17:51:18.031Z,37.95
2023-05-09T17:54:23.203Z,38.03
2023-05-09T17:57:25.627Z,37.98
2023-05-09T18:00:30.426Z,38.12
2023-05-09T18:03:33.438Z,38.14
2023-05-09T18:06:35.865Z,38.07
2023-05-09T18:09:37.736Z,38.08
2023-05-09T18:12:41.072Z,38.12
2023-05-09T18:15:45.636Z,38.07
2023-05-09T18:18:47.866Z,38.20
2023-05-09T18:21:50.173Z,38.36
2023-05-09T18:24:52.668Z,38.34
2023-05-09T18:27:56.072Z,38.47
2023-05-09T18:30:59.770Z,38.45
2023-05-09T18:34:02.012Z,38.57
2023-05-09T18:37:03.999Z,38.67
2023-05-09T18:40:06.478Z,38.72
2023-05-09T18:43:08.542Z,38.82
2023-05-09T18:46:10.343Z,38.88
2023-05-09T18:49:12.362Z,38.99
2023-05-09T18:52:14.716Z,39.10
2023-05-09T18:55:19.121Z,39.14
2023-05-09T18:58:20.889Z,39.16
2023-05-09T19:01:23.633Z,39.17
2023-05-09T19:04:27.214Z,39.23
2023-05-09T19:07:29.046Z,39.45
2023-05-09T19:10:31.012Z,39.60
2023-05-09T19:13:37.879Z,39.60
2023-05-09T19:16:39.720Z,39.69
2023-05-09T19:19:41.553Z,39.63
2023-05-09T19:22:50.805Z,39.64
2023-05-09T19:25:53.835Z,39.71
2023-05-09T19:28:55.638Z,39.93
2023-05-09T19:31:57.646Z,39.87
2023-05-09T19:34:59.290Z,40.01
2023-05-09T19:38:01.011Z,40.04
2023-05-09T19:41:02.799Z,40.06
2023-05-09T19:44:06.393Z,40.17
2023-05-09T19:47:08.425Z,40.15
2023-05-09T19:50:10.434Z,40.34
2023-05-09T19:53:12.217Z,40.31
2023-05-09T19:56:13.897Z,40.48
2023-05-09T19:59:15.548Z,40.59
2023-05-09T20:02:17.236Z,40.80
2023-05-09T20:05:19.094Z,40.84
2023-05-09T20:08:20.927Z,40.88
2023-05-09T20:11:22.620Z,40.93
2023-05-09T20:14:24.441Z,40.99
2023-05-09T20:17:26.285Z,41.05
2023-05-09T20:20:28.578Z,40.98
2023-05-09T20:23:30.589Z,40.99
2023-05-09T20:26:32.445Z,40.86
2023-05-09T20:29:34.177Z,40.86
2023-05-09T20:32:35.952Z,40.75
2023-05-09T20:35:39.125Z,40.67
2023-05-09T20:38:40.855Z,40.68
2023-05-09T20:41:44.245Z,40.61
2023-05-09T20:44:46.974Z,40.54
2023-05-09T20:47:49.078Z,40.65
2023-05-09T20:50:50.801Z,40.70
2023-05-09T20:53:52.526Z,40.66
2023-05-09T20:56:54.396Z,40.58
2023-05-09T20:59:56.181Z,40.43
2023-05-09T21:02:58.837Z,40.54
2023-05-09T21:06:00.725Z,40.54
2023-05-09T21:09:03.779Z,40.60
2023-05-09T21:12:06.079Z,40.40
2023-05-09T21:15:08.422Z,40.53
2023-05-09T21:18:10.148Z,40.50
2023-05-09T21:21:11.886Z,40.57
2023-05-09T21:24:13.793Z,40.53
2023-05-09T21:27:15.475Z,40.59
2023-05-09T21:30:17.505Z,40.57
2023-05-09T21:33:20.200Z,40.51
2023-05-09T21:36:21.878Z,40.62
2023-05-09T21:39:24.238Z,40.62
2023-05-09T21:42:25.996Z,40.71
2023-05-09T21:45:27.827Z,40.80
2023-05-09T21:48:29.602Z,40.64
2023-05-09T21:51:32.782Z,40.82
2023-05-09T21:54:34.536Z,40.61
2023-05-09T21:57:36.277Z,40.72
2023-05-09T22:00:38.041Z,40.84
2023-05-09T22:03:39.778Z,40.71
2023-05-09T22:06:42.069Z,40.88
2023-05-09T22:09:43.737Z,40.85
2023-05-09T22:12:45.430Z,40.97
2023-05-09T22:15:47.138Z,40.83
2023-05-09T22:18:48.856Z,40.90
2023-05-09T22:21:50.480Z,41.00
2023-05-09T22:24:52.598Z,40.92
2023-05-09T22:27:55.179Z,41.07
2023-05-09T22:30:56.817Z,41.22
2023-05-09T22:33:58.478Z,41.07
2023-05-09T22:37:00.206Z,41.13
2023-05-09T22:40:01.926Z,41.33
2023-05-09T22:43:03.634Z,41.31
2023-05-09T22:46:05.371Z,41.41
2023-05-09T22:49:07.050Z,41.37
2023-05-09T22:52:09.289Z,41.46
2023-05-09T22:55:10.988Z,41.43
2023-05-09T22:58:12.932Z,41.52
2023-05-09T23:01:15.049Z,41.59
2023-05-09T23:04:17.091Z,41.61
2023-05-09T23:07:18.750Z,41.67
2023-05-09T23:10:20.607Z,41.73
2023-05-09T23:13:22.324Z,41.69
2023-05-09T23:16:24.100Z,41.62
2023-05-09T23:19:26.266Z,41.78
2023-05-09T23:22:28.071Z,41.78
2023-05-09T23:25:29.769Z,41.75
2023-05-09T23:28:31.474Z,41.77
2023-05-09T23:31:33.209Z,41.83
2023-05-09T23:34:36.022Z,41.94
2023-05-09T23:37:37.715Z,41.91
2023-05-09T23:40:40.019Z,41.99
2023-05-09T23:43:41.926Z,41.99
2023-05-09T23:46:43.671Z,41.90
2023-05-09T23:49:45.338Z,42.06
2023-05-09T23:52:48.656Z,42.06
2023-05-09T23:55:50.577Z,42.08
2023-05-09T23:58:52.248Z,42.15
